Dogwood Terrace, Louisiana
Current Conditions -  °F | °C
As of 8:58 AM on Wednesday 22 Oct 2014 (Local Time) from KPOE Reporting Station
Clear Clear  
Wind Chill: 65°   Ceiling: Unl
Heat Index: 65°   Visibility: 10mi
Dew Point: 59°   Wind: 5mph
Humidity: 81%   Direction: 60°ENE
Pressure: 30.11"   Gusts: NA
Location:  30.9864°N, 93.2144°W
Report Text: KPOE 221358Z AUTO 06004KT 10SM CLR 19/15 A3011 RMK AO2 SLP197 T01850151
Loading
Personal Weather Stations






























Interactive Weather Map
Tropical Storm Tracking
New forecast layout! Learn more

10-Day Weather Forecast

Advertisements
Track Severe Weather on mobile